Time;durP1;ratioP1;P1;durP2;ratioP2;P2;SDS_P1;SDS_P2;PMS_P1;PMS_P2;Temp;Humidity;BMP_temperature;BMP_pressure;BME280_temperature;BME280_humidity;BME280_pressure;Samples;Min_cycle;Max_cycle;Signal;HPM_P1;HPM_P2
2022/05/27 00:01:29;;;;;;;;;;;;;;;-140.72;100.00;52561.31;4989013;28;19985;-69
2022/05/27 00:03:56;;;;;;;;;;;;;;;-140.72;100.00;52565.38;4991803;28;20012;-69
2022/05/27 00:06:21;;;;;;;;;;;;;;;-140.72;100.00;52547.09;4967452;28;19926;-68
2022/05/27 00:08:47;;;;;;;;;;;;;;;-140.72;100.00;52573.50;4992897;28;20059;-68
2022/05/27 00:11:12;;;;;;;;;;;;;;;-140.72;100.00;52573.50;4999791;28;20277;-68
2022/05/27 00:13:38;;;;;;;;;;;;;;;-140.72;100.00;52593.78;4995010;28;19996;-68
2022/05/27 00:16:03;;;;;;;;;;;;;;;-140.72;100.00;52601.91;4984667;28;19942;-68
2022/05/27 00:18:29;;;;;;;;;;;;;;;-140.72;100.00;52610.00;4983991;28;19925;-68
2022/05/27 00:20:55;;;;;;;;;;;;;;;-140.72;100.00;52541.03;4998030;28;19922;-68
2022/05/27 00:23:20;;;;;;;;;;;;;;;-140.72;100.00;52545.06;4996959;28;20021;-69
2022/05/27 00:25:45;;;;;;;;;;;;;;;-140.72;100.00;52549.13;4982393;28;19969;-68
2022/05/27 00:28:11;;;;;;;;;;;;;;;-140.72;100.00;52534.94;4976761;28;19925;-69
2022/05/27 00:30:36;;;;;;;;;;;;;;;-140.72;100.00;52534.94;4982070;28;19918;-69
2022/05/27 00:33:02;;;;;;;;;;;;;;;-140.72;100.00;52522.75;4985137;28;19918;-69
2022/05/27 00:35:27;;;;;;;;;;;;;;;-140.72;100.00;52506.53;4984030;28;20417;-69
2022/05/27 00:37:52;;;;;;;;;;;;;;;-140.72;100.00;52500.44;4991794;28;19922;-69
2022/05/27 00:40:19;;;;;;;;;;;;;;;-140.72;100.00;52506.53;4971210;28;19944;-69
2022/05/27 00:42:46;;;;;;;;;;;;;;;-140.72;100.00;52583.63;4985937;28;19921;-68
2022/05/27 00:45:22;;;;;;;;;;;;;;;-140.72;100.00;52553.19;4986008;28;19997;-69
2022/05/27 00:47:50;;;;;;;;;;;;;;;-140.72;100.00;52520.72;4963097;28;20394;-69
2022/05/27 00:50:16;;;;;;;;;;;;;;;-140.72;100.00;52530.88;4982893;28;19922;-69
2022/05/27 00:52:50;;;;;;;;;;;;;;;-140.72;100.00;52551.16;4994169;28;19918;-69
2022/05/27 00:55:21;;;;;;;;;;;;;;;-140.72;100.00;52478.13;4980939;28;19988;-69
2022/05/27 00:57:55;;;;;;;;;;;;;;;-140.72;100.00;52502.47;4976749;28;19926;-69
2022/05/27 01:00:22;;;;;;;;;;;;;;;-140.72;100.00;52492.31;4987036;28;19960;-69
2022/05/27 01:02:49;;;;;;;;;;;;;;;-140.72;100.00;52526.81;4982574;28;20019;-69
2022/05/27 01:05:16;;;;;;;;;;;;;;;-140.72;100.00;52457.81;4965650;28;20967;-69
2022/05/27 01:07:41;;;;;;;;;;;;;;;-140.72;100.00;52516.66;4986205;28;19918;-68
2022/05/27 01:10:08;;;;;;;;;;;;;;;-140.72;100.00;52484.19;4972609;28;19918;-69
2022/05/27 01:12:33;;;;;;;;;;;;;;;-140.72;100.00;52524.78;4990939;28;19918;-69
2022/05/27 01:15:08;;;;;;;;;;;;;;;-140.72;100.00;52532.91;4981609;28;19918;-68
2022/05/27 01:17:36;;;;;;;;;;;;;;;-140.72;100.00;52522.75;4973187;28;19917;-68
2022/05/27 01:20:19;;;;;;;;;;;;;;;-140.72;100.00;52526.81;4983613;28;19918;-69
2022/05/27 01:22:53;;;;;;;;;;;;;;;-140.72;100.00;52532.91;4981023;28;20032;-68
2022/05/27 01:25:31;;;;;;;;;;;;;;;-140.72;100.00;52512.59;4968366;28;19918;-68
2022/05/27 01:28:08;;;;;;;;;;;;;;;-140.72;100.00;52534.94;4952904;28;19965;-68
2022/05/27 01:30:35;;;;;;;;;;;;;;;-140.72;100.00;52553.19;4964166;28;20279;-68
2022/05/27 01:33:12;;;;;;;;;;;;;;;-140.72;100.00;52557.25;4982220;28;19944;-68
2022/05/27 01:35:41;;;;;;;;;;;;;;;-140.72;100.00;52536.97;4992860;28;19918;-69
2022/05/27 01:38:18;;;;;;;;;;;;;;;-140.72;100.00;52532.91;4981109;28;19961;-68
2022/05/27 01:40:49;;;;;;;;;;;;;;;-140.72;100.00;52577.53;4986002;28;19992;-68
2022/05/27 01:43:17;;;;;;;;;;;;;;;-140.72;100.00;52559.28;4994904;28;19984;-68
2022/05/27 01:45:58;;;;;;;;;;;;;;;-140.72;100.00;52518.69;4981876;28;19969;-69
2022/05/27 01:48:29;;;;;;;;;;;;;;;-140.72;100.00;52569.44;4977833;28;19918;-69
2022/05/27 01:51:06;;;;;;;;;;;;;;;-140.72;100.00;52510.59;4980572;28;19924;-69
2022/05/27 01:53:37;;;;;;;;;;;;;;;-140.72;100.00;52522.75;4982893;28;19941;-69
2022/05/27 01:56:11;;;;;;;;;;;;;;;-140.72;100.00;52581.59;4990735;28;19918;-70
2022/05/27 01:58:39;;;;;;;;;;;;;;;-140.72;100.00;52553.19;4989165;28;20334;-69
2022/05/27 02:01:07;;;;;;;;;;;;;;;-140.72;100.00;52534.94;4989840;28;19925;-69
2022/05/27 02:03:35;;;;;;;;;;;;;;;-140.72;100.00;52536.97;4992009;28;19958;-69
2022/05/27 02:06:05;;;;;;;;;;;;;;;-140.72;100.00;52563.34;4981757;28;19926;-69
2022/05/27 02:08:33;;;;;;;;;;;;;;;-140.72;100.00;52549.13;4971340;28;19922;-71
2022/05/27 02:11:00;;;;;;;;;;;;;;;-140.72;100.00;52532.91;4988870;28;20374;-72
2022/05/27 02:13:32;;;;;;;;;;;;;;;-140.72;100.00;52557.25;4989406;28;19965;-71
2022/05/27 02:15:57;;;;;;;;;;;;;;;-140.72;100.00;52569.44;4987031;28;19918;-71
2022/05/27 02:18:34;;;;;;;;;;;;;;;-140.72;100.00;52561.31;4990128;28;19925;-71
2022/05/27 02:21:03;;;;;;;;;;;;;;;-140.72;100.00;52565.38;4973476;28;20413;-71
2022/05/27 02:23:30;;;;;;;;;;;;;;;-140.72;100.00;52549.13;4982399;28;19922;-71
2022/05/27 02:25:57;;;;;;;;;;;;;;;-140.72;100.00;52543.03;4991057;28;19918;-71
2022/05/27 02:28:26;;;;;;;;;;;;;;;-140.72;100.00;52557.25;4983018;28;19922;-71
2022/05/27 02:30:54;;;;;;;;;;;;;;;-140.72;100.00;52567.41;4993961;28;19918;-71
2022/05/27 02:36:10;;;;;;;;;;;;;;;-140.72;100.00;52591.75;4975311;28;19944;-71
2022/05/27 02:38:36;;;;;;;;;;;;;;;-140.72;100.00;52571.47;4978073;28;20060;-71
2022/05/27 02:41:13;;;;;;;;;;;;;;;-140.72;100.00;52545.06;4978719;28;19996;-71
2022/05/27 02:43:41;;;;;;;;;;;;;;;-140.72;100.00;52545.06;4962990;28;19918;-71
2022/05/27 02:46:25;;;;;;;;;;;;;;;-140.72;100.00;52601.91;4979215;28;19927;-71
2022/05/27 02:49:01;;;;;;;;;;;;;;;-140.72;100.00;52569.44;4961085;28;19923;-71
2022/05/27 02:51:33;;;;;;;;;;;;;;;-140.72;100.00;52567.41;4961832;28;19953;-70
2022/05/27 02:54:18;;;;;;;;;;;;;;;-140.72;100.00;52603.94;4979125;28;19918;-71
2022/05/27 02:56:47;;;;;;;;;;;;;;;-140.72;100.00;52551.16;4960755;28;19929;-71
2022/05/27 02:59:14;;;;;;;;;;;;;;;-140.72;100.00;52616.09;4961743;28;20020;-71
2022/05/27 03:01:40;;;;;;;;;;;;;;;-140.72;100.00;52532.91;4979881;28;19918;-71
2022/05/27 03:04:06;;;;;;;;;;;;;;;-140.72;100.00;52597.84;4979175;28;20341;-71
2022/05/27 03:06:50;;;;;;;;;;;;;;;-140.72;100.00;52587.69;4978681;28;19925;-71
2022/05/27 03:09:15;;;;;;;;;;;;;;;-140.72;100.00;52577.53;4979638;28;19918;-70
2022/05/27 03:12:05;;;;;;;;;;;;;;;-140.72;100.00;52610.00;4962346;28;20374;-71
2022/05/27 03:14:36;;;;;;;;;;;;;;;-140.72;100.00;52581.59;4980662;28;19922;-71
2022/05/27 03:17:12;;;;;;;;;;;;;;;-140.72;100.00;52559.28;4980904;28;19925;-71
2022/05/27 03:19:53;;;;;;;;;;;;;;;-140.72;100.00;52541.03;4979859;28;19918;-71
2022/05/27 03:22:26;;;;;;;;;;;;;;;-140.72;100.00;52585.66;4962962;28;20297;-71
2022/05/27 03:24:51;;;;;;;;;;;;;;;-140.72;100.00;52589.72;4981323;28;19962;-71
2022/05/27 03:27:33;;;;;;;;;;;;;;;-140.72;100.00;52630.31;4963169;28;19929;-70
2022/05/27 03:30:07;;;;;;;;;;;;;;;-140.72;100.00;52563.34;4962744;28;19974;-70
2022/05/27 03:32:41;;;;;;;;;;;;;;;-140.72;100.00;52585.66;4962451;28;19919;-70
2022/05/27 03:35:20;;;;;;;;;;;;;;;-140.72;100.00;52583.63;4980064;28;19927;-70
2022/05/27 03:37:51;;;;;;;;;;;;;;;-140.72;100.00;52593.78;4982864;28;19930;-71
2022/05/27 03:40:21;;;;;;;;;;;;;;;-140.72;100.00;52555.22;4982258;28;19985;-71
2022/05/27 03:42:46;;;;;;;;;;;;;;;-140.72;100.00;52597.84;4980263;28;19941;-71
2022/05/27 03:45:13;;;;;;;;;;;;;;;-140.72;100.00;52587.69;4980724;28;19918;-70
2022/05/27 03:47:40;;;;;;;;;;;;;;;-140.72;100.00;52585.66;4980357;28;20365;-71
2022/05/27 03:50:06;;;;;;;;;;;;;;;-140.72;100.00;52595.81;4962992;28;20376;-71
2022/05/27 03:52:37;;;;;;;;;;;;;;;-140.72;100.00;52577.53;4980447;28;19957;-71
2022/05/27 03:55:02;;;;;;;;;;;;;;;-140.72;100.00;52571.47;4980695;28;19965;-71
2022/05/27 03:57:28;;;;;;;;;;;;;;;-140.72;100.00;52559.28;4980301;28;19918;-71
2022/05/27 03:59:53;;;;;;;;;;;;;;;-140.72;100.00;52587.69;4963080;28;19922;-71
2022/05/27 04:02:18;;;;;;;;;;;;;;;-140.72;100.00;52577.53;4979931;28;19918;-71
2022/05/27 04:04:44;;;;;;;;;;;;;;;-140.72;100.00;52587.69;4980651;28;19989;-71
2022/05/27 04:07:09;;;;;;;;;;;;;;;-140.72;100.00;52541.03;4981300;28;19918;-72
2022/05/27 04:09:36;;;;;;;;;;;;;;;-140.72;100.00;52597.84;4984484;28;19918;-72
2022/05/27 04:12:02;;;;;;;;;;;;;;;-140.72;100.00;52549.13;4966727;28;20014;-72
2022/05/27 04:14:27;;;;;;;;;;;;;;;-140.72;100.00;52593.78;4965240;28;19926;-72
2022/05/27 04:17:27;;;;;;;;;;;;;;;-140.72;100.00;52585.66;4965486;28;19968;-71
2022/05/27 04:19:37;;;;;;;;;;;;;;;-140.72;100.00;52549.13;4982405;28;19965;-72
2022/05/27 04:22:03;;;;;;;;;;;;;;;-140.72;100.00;52567.41;4964591;28;19945;-71
2022/05/27 04:24:33;;;;;;;;;;;;;;;-140.72;100.00;52561.31;4964944;28;19957;-71
2022/05/27 04:26:59;;;;;;;;;;;;;;;-140.72;100.00;52571.47;4981596;28;19918;-71
2022/05/27 04:29:24;;;;;;;;;;;;;;;-140.72;100.00;52545.06;4982175;28;20031;-70
2022/05/27 04:31:49;;;;;;;;;;;;;;;-140.72;100.00;52577.53;4978178;28;19922;-69
2022/05/27 04:34:28;;;;;;;;;;;;;;;-140.72;100.00;52541.03;4978307;28;20291;-69
2022/05/27 04:36:53;;;;;;;;;;;;;;;-140.72;100.00;52569.44;4964184;28;20013;-70
2022/05/27 04:39:18;;;;;;;;;;;;;;;-140.72;100.00;52605.94;4977990;28;19960;-69
2022/05/27 04:41:45;;;;;;;;;;;;;;;-140.72;100.00;52571.47;4978423;28;19972;-68
2022/05/27 04:44:10;;;;;;;;;;;;;;;-140.72;100.00;52553.19;4978293;28;19922;-69
2022/05/27 04:46:36;;;;;;;;;;;;;;;-140.72;100.00;52587.69;4977463;28;19925;-70
2022/05/27 04:49:01;;;;;;;;;;;;;;;-140.72;100.00;52622.19;4977956;28;19918;-69
2022/05/27 04:51:26;;;;;;;;;;;;;;;-140.72;100.00;52610.00;4977912;28;19918;-70
2022/05/27 04:53:51;;;;;;;;;;;;;;;-140.72;100.00;52526.81;4976825;28;19918;-69
2022/05/27 04:56:16;;;;;;;;;;;;;;;-140.72;100.00;52563.34;4977539;28;19922;-69
2022/05/27 04:58:41;;;;;;;;;;;;;;;-140.72;100.00;52589.72;4978082;28;19922;-69
2022/05/27 05:01:07;;;;;;;;;;;;;;;-140.72;100.00;52522.75;4977417;28;19918;-69
2022/05/27 05:03:32;;;;;;;;;;;;;;;-140.72;100.00;52573.50;4976551;28;19924;-69
2022/05/27 05:05:57;;;;;;;;;;;;;;;-140.72;100.00;52565.38;4977065;28;19918;-69
2022/05/27 05:08:33;;;;;;;;;;;;;;;-140.72;100.00;52563.34;4975746;28;20057;-69
2022/05/27 05:10:58;;;;;;;;;;;;;;;-140.72;100.00;52549.13;4977880;28;19919;-69
2022/05/27 05:13:23;;;;;;;;;;;;;;;-140.72;100.00;52595.81;4976851;28;19925;-69
2022/05/27 05:15:48;;;;;;;;;;;;;;;-140.72;100.00;52575.50;4977440;28;20013;-68
2022/05/27 05:18:13;;;;;;;;;;;;;;;-140.72;100.00;52553.19;4975146;28;19918;-69
2022/05/27 05:20:39;;;;;;;;;;;;;;;-140.72;100.00;52541.03;4977716;28;20077;-68
2022/05/27 05:23:04;;;;;;;;;;;;;;;-140.72;100.00;52539.00;4976433;28;20274;-69
2022/05/27 05:25:29;;;;;;;;;;;;;;;-140.72;100.00;52547.09;4960595;28;19926;-69
2022/05/27 05:27:55;;;;;;;;;;;;;;;-140.72;100.00;52555.22;4958896;28;19925;-69
2022/05/27 05:30:22;;;;;;;;;;;;;;;-140.72;100.00;52569.44;4961784;28;19927;-69
2022/05/27 05:32:47;;;;;;;;;;;;;;;-140.72;100.00;52585.66;4957501;28;19918;-68
2022/05/27 05:35:13;;;;;;;;;;;;;;;-140.72;100.00;52545.06;4957340;28;19969;-69
2022/05/27 05:37:38;;;;;;;;;;;;;;;-140.72;100.00;52549.13;4961818;28;19972;-69
2022/05/27 05:40:04;;;;;;;;;;;;;;;-140.72;100.00;52541.03;4961912;28;20521;-69
2022/05/27 05:42:29;;;;;;;;;;;;;;;-140.72;100.00;52512.59;4961528;28;19917;-70
2022/05/27 05:44:55;;;;;;;;;;;;;;;-140.72;100.00;52504.50;4958994;28;20297;-69
2022/05/27 05:47:20;;;;;;;;;;;;;;;-140.72;100.00;52589.72;4943220;29;19946;-69
2022/05/27 05:49:46;;;;;;;;;;;;;;;-140.72;100.00;52577.53;4949566;28;19923;-69
2022/05/27 05:52:11;;;;;;;;;;;;;;;-140.72;100.00;52553.19;4960170;28;19993;-69
2022/05/27 05:54:36;;;;;;;;;;;;;;;-140.72;100.00;52626.25;4940314;29;19969;-68
2022/05/27 05:57:02;;;;;;;;;;;;;;;-140.72;100.00;52536.97;4957408;29;19926;-69
2022/05/27 05:59:29;;;;;;;;;;;;;;;-140.72;100.00;52545.06;4957618;29;19926;-69
2022/05/27 06:01:54;;;;;;;;;;;;;;;-140.72;100.00;52506.53;4965914;28;20020;-68
2022/05/27 06:04:19;;;;;;;;;;;;;;;-140.72;100.00;52555.22;4967426;28;20363;-69
2022/05/27 06:06:44;;;;;;;;;;;;;;;-140.72;100.00;52561.31;4966949;28;20013;-70
2022/05/27 06:09:10;;;;;;;;;;;;;;;-140.72;100.00;52545.06;4952711;29;19923;-69
2022/05/27 06:11:36;;;;;;;;;;;;;;;-140.72;100.00;52561.31;4966543;28;19918;-69
2022/05/27 06:14:02;;;;;;;;;;;;;;;-140.72;100.00;52502.47;4966765;28;19953;-68
2022/05/27 06:16:27;;;;;;;;;;;;;;;-140.72;100.00;52524.78;4966134;28;20279;-68
2022/05/27 06:18:52;;;;;;;;;;;;;;;-140.72;100.00;52553.19;4966032;28;20026;-69
2022/05/27 06:21:17;;;;;;;;;;;;;;;-140.72;100.00;52492.31;4970347;28;19922;-69
2022/05/27 06:23:44;;;;;;;;;;;;;;;-140.72;100.00;52526.81;4945275;28;19918;-69
2022/05/27 06:26:10;;;;;;;;;;;;;;;-140.72;100.00;52532.91;4968460;28;20441;-69
2022/05/27 06:36:48;;;;;;;;;;;;;;;-140.72;100.00;52534.94;4966059;28;19933;-69
2022/05/27 06:39:14;;;;;;;;;;;;;;;-140.72;100.00;52565.38;4965669;28;19934;-69
2022/05/27 06:41:39;;;;;;;;;;;;;;;-140.72;100.00;52504.50;4966743;28;20024;-69
2022/05/27 06:44:05;;;;;;;;;;;;;;;-140.72;100.00;52506.53;4965905;28;19918;-70
2022/05/27 06:46:31;;;;;;;;;;;;;;;-140.72;100.00;52539.00;4964763;28;19937;-70
2022/05/27 06:48:56;;;;;;;;;;;;;;;-140.72;100.00;52502.47;4970163;28;19973;-70
2022/05/27 06:51:21;;;;;;;;;;;;;;;-140.72;100.00;52512.59;4967152;28;19918;-70
2022/05/27 06:53:47;;;;;;;;;;;;;;;-140.72;100.00;52526.81;4950591;28;20256;-70
2022/05/27 06:56:13;;;;;;;;;;;;;;;-140.72;100.00;52512.59;4971792;28;19929;-70
2022/05/27 06:58:40;;;;;;;;;;;;;;;-140.72;100.00;52557.25;4970839;28;19925;-73
2022/05/27 07:01:05;;;;;;;;;;;;;;;-140.72;100.00;52520.72;4980112;28;19922;-72
2022/05/27 07:03:31;;;;;;;;;;;;;;;-140.72;100.00;52484.19;4979231;28;19949;-71
2022/05/27 07:05:56;;;;;;;;;;;;;;;-140.72;100.00;52504.50;4972355;28;19924;-70
2022/05/27 07:08:21;;;;;;;;;;;;;;;-140.72;100.00;52510.59;4963279;28;19961;-70
2022/05/27 07:10:47;;;;;;;;;;;;;;;-140.72;100.00;52496.38;4972425;28;20368;-71
2022/05/27 07:13:12;;;;;;;;;;;;;;;-140.72;100.00;52512.59;4970414;28;19926;-71
2022/05/27 07:15:38;;;;;;;;;;;;;;;-140.72;100.00;52514.63;4953844;28;20421;-71
2022/05/27 07:18:04;;;;;;;;;;;;;;;-140.72;100.00;52500.44;4966788;28;19949;-71
2022/05/27 07:20:30;;;;;;;;;;;;;;;-140.72;100.00;52514.63;4955575;28;19919;-71
2022/05/27 07:22:55;;;;;;;;;;;;;;;-140.72;100.00;52528.84;4951009;28;19929;-71
2022/05/27 07:25:20;;;;;;;;;;;;;;;-140.72;100.00;52502.47;4950127;28;20250;-71
2022/05/27 07:27:46;;;;;;;;;;;;;;;-140.72;100.00;52528.84;4967952;28;19942;-71
2022/05/27 07:30:15;;;;;;;;;;;;;;;-140.72;100.00;52480.16;4954246;28;19941;-71
2022/05/27 07:32:40;;;;;;;;;;;;;;;-140.72;100.00;52447.69;4943187;28;19922;-76
2022/05/27 07:35:06;;;;;;;;;;;;;;;-140.72;100.00;52459.84;4968900;28;19945;-73
2022/05/27 07:37:31;;;;;;;;;;;;;;;-140.72;100.00;52423.31;4977917;28;20381;-72
2022/05/27 07:39:56;;;;;;;;;;;;;;;-140.72;100.00;52451.72;4964901;28;19988;-71
2022/05/27 07:42:21;;;;;;;;;;;;;;;-140.72;100.00;52478.13;4980707;28;19918;-70
2022/05/27 07:44:47;;;;;;;;;;;;;;;-140.72;100.00;52496.38;4989367;28;19985;-69
2022/05/27 07:47:12;;;;;;;;;;;;;;;-140.72;100.00;52480.16;4969884;28;19945;-68
2022/05/27 07:49:37;;;;;;;;;;;;;;;-140.72;100.00;52467.97;4974336;28;19926;-69
2022/05/27 07:52:04;;;;;;;;;;;;;;;-140.72;100.00;52467.97;4972385;28;19957;-69
2022/05/27 07:54:29;;;;;;;;;;;;;;;-140.72;100.00;52476.09;4984476;28;19930;-70
2022/05/27 07:56:54;;;;;;;;;;;;;;;-140.72;100.00;52470.00;4967354;28;19918;-69
2022/05/27 07:59:20;;;;;;;;;;;;;;;-140.72;100.00;52427.38;4977132;28;19934;-69
2022/05/27 08:01:45;;;;;;;;;;;;;;;-140.72;100.00;52516.66;4985361;28;19926;-70
2022/05/27 08:04:11;;;;;;;;;;;;;;;-140.72;100.00;52425.34;4984131;28;19918;-69
2022/05/27 08:06:36;;;;;;;;;;;;;;;-140.72;100.00;52472.03;4979347;28;19962;-72
2022/05/27 08:09:01;;;;;;;;;;;;;;;-140.72;100.00;52435.50;4978781;28;20362;-71
2022/05/27 08:11:26;;;;;;;;;;;;;;;-140.72;100.00;52447.69;4964295;28;19951;-70
2022/05/27 08:13:52;;;;;;;;;;;;;;;-140.72;100.00;52510.59;4975498;28;19973;-71
2022/05/27 08:16:17;;;;;;;;;;;;;;;-140.72;100.00;52451.72;4973851;28;20351;-70
2022/05/27 08:18:42;;;;;;;;;;;;;;;-140.72;100.00;52465.94;4978790;28;19929;-70
2022/05/27 08:21:07;;;;;;;;;;;;;;;-140.72;100.00;52411.16;4979502;28;19920;-71
2022/05/27 08:23:32;;;;;;;;;;;;;;;-140.72;100.00;52435.50;4976082;28;19930;-70
2022/05/27 08:25:58;;;;;;;;;;;;;;;-140.72;100.00;52476.09;4983585;28;19989;-70
2022/05/27 08:28:27;;;;;;;;;;;;;;;-140.72;100.00;52413.19;4971335;28;19928;-70
2022/05/27 08:30:55;;;;;;;;;;;;;;;-140.72;100.00;52445.66;4975148;28;19922;-71
2022/05/27 08:33:21;;;;;;;;;;;;;;;-140.72;100.00;52476.09;4975940;28;19965;-70
2022/05/27 08:38:32;;;;;;;;;;;;;;;-140.72;100.00;52431.44;4974938;28;19944;-70
2022/05/27 08:41:26;;;;;;;;;;;;;;;-140.72;100.00;52445.66;4970777;28;20294;-70
2022/05/27 08:44:08;;;;;;;;;;;;;;;-140.72;100.00;52390.84;4951528;28;20305;-69
2022/05/27 08:46:54;;;;;;;;;;;;;;;-140.72;100.00;52398.97;4971128;28;20020;-71
2022/05/27 08:49:27;;;;;;;;;;;;;;;-140.72;100.00;52401.00;4968906;28;19933;-69
2022/05/27 08:51:56;;;;;;;;;;;;;;;-140.72;100.00;52378.69;4956162;28;19922;-69
2022/05/27 08:54:23;;;;;;;;;;;;;;;-140.72;100.00;52358.41;4975150;28;19919;-68
2022/05/27 08:59:40;;;;;;;;;;;;;;;-140.72;100.00;52388.84;4979909;28;19941;-70
2022/05/27 09:02:12;;;;;;;;;;;;;;;-140.72;100.00;52364.47;4959408;28;19984;-70
2022/05/27 09:04:43;;;;;;;;;;;;;;;-140.72;100.00;52380.72;4982131;28;19925;-70
2022/05/27 09:07:31;;;;;;;;;;;;;;;-140.72;100.00;52378.69;4980187;28;20374;-70
2022/05/27 09:09:58;;;;;;;;;;;;;;;-140.72;100.00;52417.25;4952381;28;19926;-70
2022/05/27 09:12:38;;;;;;;;;;;;;;;-140.72;100.00;52334.03;4960805;28;19918;-70
2022/05/27 09:15:12;;;;;;;;;;;;;;;-140.72;100.00;52327.97;4981191;28;19918;-72
2022/05/27 09:17:41;;;;;;;;;;;;;;;-140.72;100.00;52293.47;4962061;28;20369;-73
2022/05/27 09:20:12;;;;;;;;;;;;;;;-140.72;100.00;52309.69;4980984;28;19918;-78
2022/05/27 09:22:53;;;;;;;;;;;;;;;-140.72;100.00;52305.63;4970054;28;20370;-77
2022/05/27 09:25:32;;;;;;;;;;;;;;;-140.72;100.00;52374.63;4972287;28;19926;-74
2022/05/27 09:28:00;;;;;;;;;;;;;;;-140.72;100.00;52325.94;4971501;28;19977;-77
2022/05/27 09:30:26;;;;;;;;;;;;;;;-140.72;100.00;52299.56;4973732;28;20079;-73
2022/05/27 09:33:02;;;;;;;;;;;;;;;-140.72;100.00;52390.84;4935952;29;19977;-77
2022/05/27 09:35:45;;;;;;;;;;;;;;;-140.72;100.00;52396.94;4972433;28;19926;-78
2022/05/27 09:38:25;;;;;;;;;;;;;;;-140.72;100.00;52433.47;4976345;28;20408;-76
2022/05/27 09:40:56;;;;;;;;;;;;;;;-140.72;100.00;52336.06;4983461;28;19929;-76
2022/05/27 09:43:30;;;;;;;;;;;;;;;-140.72;100.00;52265.06;4983894;28;20368;-74
2022/05/27 09:45:57;;;;;;;;;;;;;;;-140.72;100.00;52346.22;4984488;28;19980;-72
2022/05/27 09:48:22;;;;;;;;;;;;;;;-140.72;100.00;52334.03;4981934;28;19918;-77
2022/05/27 09:50:48;;;;;;;;;;;;;;;-140.72;100.00;52378.69;4978868;28;19929;-72
2022/05/27 09:53:16;;;;;;;;;;;;;;;-140.72;100.00;52344.19;4980183;28;19918;-73
2022/05/27 09:56:20;;;;;;;;;;;;;;;-140.72;100.00;52285.34;4982638;28;19918;-76
2022/05/27 09:58:46;;;;;;;;;;;;;;;-140.72;100.00;52283.31;4892601;29;19924;-74
2022/05/27 10:01:22;;;;;;;;;;;;;;;-140.72;100.00;52299.56;4911397;29;19920;-70
2022/05/27 10:03:57;;;;;;;;;;;;;;;-140.72;100.00;52346.22;4945571;28;19922;-69
2022/05/27 10:06:25;;;;;;;;;;;;;;;-140.72;100.00;52396.94;4977879;28;19918;-68
2022/05/27 10:08:53;;;;;;;;;;;;;;;-140.72;100.00;52374.63;4995708;28;20084;-74
2022/05/27 10:11:20;;;;;;;;;;;;;;;-140.72;100.00;52413.19;4988101;28;20020;-68
2022/05/27 10:13:46;;;;;;;;;;;;;;;-140.72;100.00;52463.91;4992768;28;19922;-67
2022/05/27 10:16:14;;;;;;;;;;;;;;;-140.72;100.00;52455.78;4996102;28;19924;-67
2022/05/27 10:18:41;;;;;;;;;;;;;;;-140.72;100.00;52435.50;4993711;28;19928;-67
2022/05/27 10:21:12;;;;;;;;;;;;;;;-140.72;100.00;52332.03;4986224;28;20022;-68
2022/05/27 10:23:39;;;;;;;;;;;;;;;-140.72;100.00;52277.22;4988838;28;19918;-68
2022/05/27 10:26:21;;;;;;;;;;;;;;;-140.72;100.00;52261.00;4987927;28;19921;-68
2022/05/27 10:29:06;;;;;;;;;;;;;;;-140.72;100.00;52299.56;4990200;28;20540;-68
2022/05/27 10:31:32;;;;;;;;;;;;;;;-140.72;100.00;52352.31;4981089;28;19922;-67
2022/05/27 10:34:00;;;;;;;;;;;;;;;-140.72;100.00;52234.63;4979965;28;19948;-68
2022/05/27 10:36:25;;;;;;;;;;;;;;;-140.72;100.00;52218.38;4981049;28;19922;-68
2022/05/27 10:38:56;;;;;;;;;;;;;;;-140.72;100.00;52200.13;4970269;28;19985;-68
2022/05/27 10:41:43;;;;;;;;;;;;;;;-140.72;100.00;52151.44;4987707;28;19958;-68
2022/05/27 10:44:22;;;;;;;;;;;;;;;-140.72;100.00;52151.44;4964760;28;19922;-68
2022/05/27 10:46:51;;;;;;;;;;;;;;;-140.72;100.00;52185.94;4990726;28;19988;-68
2022/05/27 10:49:16;;;;;;;;;;;;;;;-140.72;100.00;52240.72;4980531;28;19969;-67
2022/05/27 10:51:58;;;;;;;;;;;;;;;-140.72;100.00;52169.69;4966569;28;19976;-69
2022/05/27 10:54:35;;;;;;;;;;;;;;;-140.72;100.00;52216.34;4969631;28;19921;-68
2022/05/27 11:03:30;;;;;;;;;;;;;;;-140.72;100.00;52112.88;4984689;28;19925;-68
2022/05/27 11:06:09;;;;;;;;;;;;;;;-140.72;100.00;52078.38;4984495;28;19917;-67
2022/05/27 11:08:43;;;;;;;;;;;;;;;-140.72;100.00;52025.63;4965215;28;20402;-67
2022/05/27 11:11:17;;;;;;;;;;;;;;;-140.72;100.00;52054.03;4990015;28;20017;-67
2022/05/27 11:16:38;;;;;;;;;;;;;;;-140.72;100.00;52127.09;4980933;28;20017;-68
2022/05/27 11:19:14;;;;;;;;;;;;;;;-140.72;100.00;52017.53;4967821;28;20361;-69
2022/05/27 11:21:47;;;;;;;;;;;;;;;-140.72;100.00;52043.91;4987332;28;19918;-68
2022/05/27 11:24:31;;;;;;;;;;;;;;;-140.72;100.00;52007.38;4986733;28;19918;-68
2022/05/27 11:27:02;;;;;;;;;;;;;;;-140.72;100.00;52001.28;4983851;28;19921;-68
2022/05/27 11:29:35;;;;;;;;;;;;;;;-140.72;100.00;52206.22;4980462;28;20292;-69
2022/05/27 11:32:01;;;;;;;;;;;;;;;-140.72;100.00;52045.94;4984431;28;20366;-69
2022/05/27 11:34:28;;;;;;;;;;;;;;;-140.72;100.00;52149.41;4984189;28;19980;-69
2022/05/27 11:37:18;;;;;;;;;;;;;;;-140.72;100.00;52240.72;4980654;28;19943;-70
2022/05/27 11:39:58;;;;;;;;;;;;;;;-140.72;100.00;52088.53;4962277;28;19957;-72
2022/05/27 11:42:43;;;;;;;;;;;;;;;-140.72;100.00;52086.50;4993849;28;19958;-69
2022/05/27 11:45:26;;;;;;;;;;;;;;;-140.72;100.00;52037.81;4986164;28;19926;-67
2022/05/27 11:48:03;;;;;;;;;;;;;;;-140.72;100.00;51972.88;4974128;28;19945;-69
2022/05/27 11:50:47;;;;;;;;;;;;;;;-140.72;100.00;51989.13;4982785;28;19918;-78
2022/05/27 11:53:25;;;;;;;;;;;;;;;-140.72;100.00;52066.22;4992494;28;19922;-69
2022/05/27 11:56:09;;;;;;;;;;;;;;;-140.72;100.00;52023.59;4965330;28;19965;-69
2022/05/27 11:58:42;;;;;;;;;;;;;;;-140.72;100.00;51995.19;4991592;28;19918;-68
2022/05/27 12:01:30;;;;;;;;;;;;;;;-140.72;100.00;52029.69;4993979;28;20005;-68
2022/05/27 12:04:00;;;;;;;;;;;;;;;-140.72;100.00;51899.84;4968256;28;19918;-68
2022/05/27 12:06:30;;;;;;;;;;;;;;;-140.72;100.00;52110.84;4983156;28;19922;-68
2022/05/27 12:08:58;;;;;;;;;;;;;;;-140.72;100.00;52204.19;4981380;28;20266;-69
2022/05/27 12:11:31;;;;;;;;;;;;;;;-140.72;100.00;52123.03;4990644;28;20293;-68
2022/05/27 12:14:02;;;;;;;;;;;;;;;-140.72;100.00;52029.69;4993134;28;19918;-69
2022/05/27 12:16:31;;;;;;;;;;;;;;;-140.72;100.00;52074.34;4989467;28;19918;-69
2022/05/27 12:19:01;;;;;;;;;;;;;;;-140.72;100.00;52080.41;4987734;28;19922;-68
2022/05/27 12:21:28;;;;;;;;;;;;;;;-140.72;100.00;52039.84;4982153;28;19922;-69
2022/05/27 12:24:16;;;;;;;;;;;;;;;-140.72;100.00;52060.13;4979273;28;19938;-70
2022/05/27 12:26:42;;;;;;;;;;;;;;;-140.72;100.00;51997.22;4969529;28;19929;-70
2022/05/27 12:29:09;;;;;;;;;;;;;;;-140.72;100.00;51991.16;4974156;28;19918;-69
2022/05/27 12:31:34;;;;;;;;;;;;;;;-140.72;100.00;51993.19;4989821;28;19918;-69
2022/05/27 12:34:18;;;;;;;;;;;;;;;-140.72;100.00;51958.69;4978653;28;19922;-69
2022/05/27 12:36:44;;;;;;;;;;;;;;;-140.72;100.00;52037.81;4987530;28;19926;-68
2022/05/27 12:39:09;;;;;;;;;;;;;;;-140.72;100.00;52159.56;4969641;28;20049;-69
2022/05/27 12:41:34;;;;;;;;;;;;;;;-140.72;100.00;52118.97;4962249;28;19918;-69
2022/05/27 12:44:01;;;;;;;;;;;;;;;-140.72;100.00;52167.66;4959630;28;20081;-69
2022/05/27 12:46:32;;;;;;;;;;;;;;;-140.72;100.00;52135.19;4983279;28;19954;-69
2022/05/27 12:49:15;;;;;;;;;;;;;;;-140.72;100.00;52189.97;4973438;28;19940;-69
2022/05/27 12:51:44;;;;;;;;;;;;;;;-140.72;100.00;52054.03;4988170;28;19922;-69
2022/05/27 12:54:09;;;;;;;;;;;;;;;-140.72;100.00;52202.16;4973202;28;19925;-70
2022/05/27 13:02:22;;;;;;;;;;;;;;;-140.72;100.00;52173.75;4983747;28;20015;-68